ADDS METAR Data INFO
IDs: Format: Raw Decoded Include TAF

Data at: 0837 UTC 21 Oct 2017

KFDK 210825Z AUTO 00000KT 4SM BR CLR 06/06 A3031 RMK AO2
KFDK 210805Z AUTO 00000KT 10SM CLR 07/07 A3030 RMK AO2
KFDK 210745Z AUTO 00000KT 3SM BR CLR 07/07 A3030 RMK AO2
KFDK 210725Z AUTO 00000KT 10SM CLR 07/07 A3030 RMK AO2
KFDK 210705Z AUTO 00000KT 1SM BR VV007 06/06 A3030 RMK AO2 VIS 1/2V3
KFDK 210645Z AUTO 00000KT 7SM CLR 07/07 A3030 RMK AO2
KFDK 210625Z AUTO 00000KT 5SM BR CLR 07/07 A3031 RMK AO2
KFDK 210605Z AUTO 00000KT 4SM BR CLR 07/07 A3030 RMK AO2
KFDK 210545Z AUTO 00000KT 10SM CLR 07/07 A3030 RMK AO2
KFDK 210525Z AUTO 00000KT 10SM CLR 08/08 A3030 RMK AO2
KFDK 210505Z AUTO 00000KT 10SM CLR 08/08 A3030 RMK AO2
KFDK 210445Z AUTO 00000KT 7SM CLR 07/07 A3030 RMK AO2
KFDK 210425Z AUTO 00000KT 10SM CLR 08/08 A3030 RMK AO2
KFDK 210405Z AUTO 00000KT 10SM CLR 08/08 A3030 RMK AO2
KFDK 210345Z AUTO 00000KT 10SM CLR 08/08 A3029 RMK AO2
KFDK 210325Z AUTO 00000KT 10SM CLR 10/10 A3029 RMK AO2
KFDK 210305Z AUTO 00000KT 10SM CLR 10/10 A3029 RMK AO2
KFDK 210245Z AUTO 00000KT 10SM CLR 10/10 A3028 RMK AO2
KFDK 210225Z AUTO 00000KT 10SM CLR 10/10 A3028 RMK AO2
KFDK 210205Z AUTO 00000KT 10SM CLR 10/10 A3028 RMK AO2
KFDK 210145Z AUTO 00000KT 10SM CLR 11/11 A3027 RMK AO2
KFDK 210125Z AUTO 00000KT 10SM CLR 10/10 A3027 RMK AO2
KFDK 210105Z AUTO 00000KT 10SM CLR 12/12 A3026 RMK AO2
KFDK 202347Z 00000KT 10SM SKC 14/08 A3025
KFDK 202247Z 00000KT 10SM SKC 17/07 A3023
KFDK 202147Z 00000KT 10SM SKC 23/03 A3022
KFDK 202047Z VRB04KT 10SM SKC 24/01 A3022
KFDK 201947Z 36003KT 10SM SKC 23/01 A3023
KFDK 201847Z 36006KT 10SM SKC 25/02 A3023
KFDK 201747Z 01004KT 10SM SKC 24/03 A3025
KFDK 201647Z 34005KT 10SM SKC 24/02 A3027
KFDK 201547Z 34005KT 10SM SKC 23/07 A3028
KFDK 201447Z 29008KT 10SM SKC 21/09 A3029
KFDK 201347Z 26005KT 10SM SKC 18/10 A3028
KFDK 201247Z 00000KT 10SM SKC 13/13 A3028
KFDK 201147Z 00000KT 10SM SKC 09/09 A3025
KFDK 201050Z AUTO 00000KT 10SM CLR 08/08 A3024 RMK AO2
KFDK 201045Z AUTO 00000KT 10SM CLR 08/08 A3024 RMK AO2
KFDK 201025Z AUTO 00000KT 10SM CLR 08/08 A3023 RMK AO2
KFDK 201005Z AUTO 00000KT 10SM CLR 07/07 A3023 RMK AO2
KFDK 200945Z AUTO 00000KT 10SM CLR 08/08 A3023 RMK AO2
KFDK 200925Z AUTO 00000KT 10SM CLR 08/08 A3022 RMK AO2
KFDK 200905Z AUTO 00000KT 7SM CLR 08/08 A3021 RMK AO2
KFDK 200845Z AUTO 00000KT 10SM CLR 09/09 A3021 RMK AO2
KFDK 200825Z AUTO 00000KT 10SM CLR 09/09 A3020 RMK AO2
KFDK 200805Z AUTO 00000KT 10SM CLR 09/09 A3020 RMK AO2
KFDK 200745Z AUTO 00000KT 10SM CLR 10/10 A3020 RMK AO2
KFDK 200725Z AUTO 16003KT 10SM CLR 10/10 A3020 RMK AO2
KFDK 200705Z AUTO 00000KT 10SM CLR 10/10 A3020 RMK AO2
KFDK 200645Z AUTO 00000KT 10SM CLR 09/09 A3020 RMK AO2
KFDK 200625Z AUTO 00000KT 10SM CLR 09/09 A3020 RMK AO2
KFDK 200605Z AUTO 00000KT 10SM CLR 09/09 A3020 RMK AO2
KFDK 200545Z AUTO 00000KT 10SM CLR 10/10 A3020 RMK AO2
KFDK 200525Z AUTO 00000KT 10SM CLR 10/10 A3020 RMK AO2
KFDK 200505Z AUTO 00000KT 10SM CLR 10/10 A3020 RMK AO2
KFDK 200445Z AUTO 00000KT 10SM CLR 10/10 A3020 RMK AO2
KFDK 200425Z AUTO 00000KT 10SM CLR 10/10 A3020 RMK AO2
KFDK 200405Z AUTO 00000KT 10SM CLR 11/11 A3020 RMK AO2
KFDK 200345Z AUTO 13003KT 10SM CLR 10/10 A3020 RMK AO2
KFDK 200325Z AUTO 13003KT 10SM CLR 11/11 A3019 RMK AO2
KFDK 200305Z AUTO 15003KT 10SM CLR 10/10 A3019 RMK AO2
KFDK 200245Z AUTO 00000KT 10SM CLR 10/10 A3019 RMK AO2
KFDK 200225Z AUTO 00000KT 10SM CLR 10/10 A3019 RMK AO2
KFDK 200205Z AUTO 00000KT 10SM CLR 11/11 A3019 RMK AO2
KFDK 200145Z AUTO 00000KT 10SM CLR 10/10 A3018 RMK AO2
KFDK 200125Z AUTO 00000KT 10SM CLR 12/12 A3018 RMK AO2
KFDK 200105Z AUTO 00000KT 10SM CLR 11/11 A3018 RMK AO2
KFDK 192347Z 00000KT 10SM SKC 15/10 A3017
KFDK 192247Z 00000KT 10SM SKC 19/07 A3015
KFDK 192147Z 18003KT 10SM SKC 22/07 A3016
KFDK 192047Z 20008KT 10SM SKC 24/05 A3017